Time;durP1;ratioP1;P1;durP2;ratioP2;P2;SDS_P1;SDS_P2;PMS_P1;PMS_P2;Temp;Humidity;BMP_temperature;BMP_pressure;BME280_temperature;BME280_humidity;BME280_pressure;Samples;Min_cycle;Max_cycle;Signal;HPM_P1;HPM_P2
2021/11/13 00:01:00;;;;;;;10.63;8.73;;;;;;;;;;5072909;28;20603;-80
2021/11/13 00:03:26;;;;;;;10.17;8.30;;;;;;;;;;5078720;28;20200;-80
2021/11/13 00:05:52;;;;;;;9.83;7.97;;;;;;;;;;5062892;28;20181;-80
2021/11/13 00:08:18;;;;;;;9.70;8.53;;;;;;;;;;5066595;28;20184;-80
2021/11/13 00:10:45;;;;;;;12.07;9.07;;;;;;;;;;5078527;28;20226;-81
2021/11/13 00:13:11;;;;;;;12.33;8.63;;;;;;;;;;5090274;28;20662;-80
2021/11/13 00:15:38;;;;;;;11.33;8.67;;;;;;;;;;5088252;28;20213;-78
2021/11/13 00:18:04;;;;;;;11.87;8.80;;;;;;;;;;5070194;28;20194;-79
2021/11/13 00:20:30;;;;;;;11.90;9.10;;;;;;;;;;5058246;28;20554;-78
2021/11/13 00:22:58;;;;;;;12.33;9.30;;;;;;;;;;5073620;28;20231;-77
2021/11/13 00:25:24;;;;;;;11.80;8.47;;;;;;;;;;5076424;28;20551;-78
2021/11/13 00:27:50;;;;;;;10.17;8.43;;;;;;;;;;5093134;28;20183;-78
2021/11/13 00:30:17;;;;;;;10.43;8.37;;;;;;;;;;5079278;28;20724;-78
2021/11/13 00:32:44;;;;;;;10.83;8.33;;;;;;;;;;5074264;28;20609;-78
2021/11/13 00:35:11;;;;;;;10.23;8.07;;;;;;;;;;5077754;28;20172;-78
2021/11/13 00:37:37;;;;;;;11.10;8.43;;;;;;;;;;5072937;28;20207;-78
2021/11/13 00:40:04;;;;;;;10.47;8.13;;;;;;;;;;5063735;28;20184;-78
2021/11/13 00:42:30;;;;;;;9.77;8.47;;;;;;;;;;5076210;28;20179;-78
2021/11/13 00:44:56;;;;;;;9.13;7.93;;;;;;;;;;5077883;28;20626;-78
2021/11/13 00:47:22;;;;;;;12.27;9.10;;;;;;;;;;5095904;28;20657;-78
2021/11/13 00:49:48;;;;;;;10.07;7.53;;;;;;;;;;5089969;28;20294;-78
2021/11/13 00:52:14;;;;;;;10.37;8.33;;;;;;;;;;5090639;28;20642;-78
2021/11/13 00:54:40;;;;;;;10.27;8.17;;;;;;;;;;5079354;28;20557;-78
2021/11/13 00:57:10;;;;;;;13.13;8.17;;;;;;;;;;5092636;28;20169;-78
2021/11/13 00:59:37;;;;;;;10.43;8.17;;;;;;;;;;5083369;28;20262;-78
2021/11/13 01:02:04;;;;;;;10.40;8.60;;;;;;;;;;5073385;28;20180;-78
2021/11/13 01:04:30;;;;;;;9.80;8.30;;;;;;;;;;5076982;28;20199;-78
2021/11/13 01:06:56;;;;;;;10.07;8.80;;;;;;;;;;5067896;28;20678;-78
2021/11/13 01:09:22;;;;;;;11.43;8.13;;;;;;;;;;5072980;28;20671;-78
2021/11/13 01:11:48;;;;;;;9.50;8.07;;;;;;;;;;5065042;28;20188;-78
2021/11/13 01:14:15;;;;;;;9.57;8.03;;;;;;;;;;5077019;28;20606;-78
2021/11/13 01:16:41;;;;;;;8.80;7.90;;;;;;;;;;5064721;28;20657;-78
2021/11/13 01:19:11;;;;;;;10.88;8.93;;;;;;;;;;5073317;28;20423;-78
2021/11/13 01:21:37;;;;;;;10.57;8.17;;;;;;;;;;5088242;28;20703;-78
2021/11/13 01:24:03;;;;;;;9.27;8.30;;;;;;;;;;5064080;28;20226;-79
2021/11/13 01:26:29;;;;;;;9.10;8.10;;;;;;;;;;5065377;28;20255;-78
2021/11/13 01:28:55;;;;;;;10.07;8.53;;;;;;;;;;5064288;28;20204;-78
2021/11/13 01:31:21;;;;;;;8.77;7.83;;;;;;;;;;5061090;28;20189;-78
2021/11/13 01:33:48;;;;;;;9.17;7.70;;;;;;;;;;5069676;28;20199;-78
2021/11/13 01:36:14;;;;;;;9.57;8.13;;;;;;;;;;5065095;28;20635;-78
2021/11/13 01:38:41;;;;;;;10.70;7.77;;;;;;;;;;5070035;28;20263;-77
2021/11/13 01:41:08;;;;;;;9.93;8.43;;;;;;;;;;5072040;28;20172;-78
2021/11/13 01:43:35;;;;;;;11.70;8.23;;;;;;;;;;5056620;28;20199;-78
2021/11/13 01:46:03;;;;;;;10.87;7.93;;;;;;;;;;5084572;28;20207;-78
2021/11/13 01:48:29;;;;;;;9.23;8.30;;;;;;;;;;5068357;28;20184;-79
2021/11/13 01:50:55;;;;;;;9.23;7.93;;;;;;;;;;5073962;28;20179;-79
2021/11/13 01:53:23;;;;;;;9.97;7.97;;;;;;;;;;5074901;28;20200;-79
2021/11/13 01:55:49;;;;;;;10.87;7.90;;;;;;;;;;5073666;28;20243;-78
2021/11/13 01:58:15;;;;;;;11.73;8.07;;;;;;;;;;5073365;28;20168;-78
2021/11/13 02:00:44;;;;;;;10.27;8.87;;;;;;;;;;5057961;28;20203;-78
2021/11/13 02:03:11;;;;;;;9.07;7.77;;;;;;;;;;5069647;28;20196;-79
2021/11/13 02:05:37;;;;;;;11.07;7.70;;;;;;;;;;5071651;28;20185;-79
2021/11/13 02:08:04;;;;;;;9.73;8.70;;;;;;;;;;5062376;28;20549;-80
2021/11/13 02:10:30;;;;;;;11.07;8.50;;;;;;;;;;5061499;28;20597;-79
2021/11/13 02:12:59;;;;;;;11.57;8.57;;;;;;;;;;5088275;28;20685;-79
2021/11/13 02:15:26;;;;;;;9.37;8.37;;;;;;;;;;5090772;28;20703;-79
2021/11/13 02:17:52;;;;;;;10.47;8.83;;;;;;;;;;5069980;28;20237;-79
2021/11/13 02:20:19;;;;;;;14.47;9.30;;;;;;;;;;5070245;28;20760;-80
2021/11/13 02:22:46;;;;;;;11.43;9.33;;;;;;;;;;5070718;28;20208;-80
2021/11/13 02:25:15;;;;;;;11.37;8.37;;;;;;;;;;5055399;28;20666;-79
2021/11/13 02:27:41;;;;;;;10.43;8.60;;;;;;;;;;5068547;28;20754;-79
2021/11/13 02:30:07;;;;;;;11.83;9.73;;;;;;;;;;5067633;28;20212;-79
2021/11/13 02:32:34;;;;;;;12.17;9.53;;;;;;;;;;5085015;28;20186;-80
2021/11/13 02:35:00;;;;;;;12.30;9.80;;;;;;;;;;5068397;28;20195;-80
2021/11/13 02:37:29;;;;;;;10.07;8.53;;;;;;;;;;5062684;28;20180;-80
2021/11/13 02:39:55;;;;;;;10.57;8.60;;;;;;;;;;5067562;28;20187;-79
2021/11/13 02:42:22;;;;;;;11.17;9.37;;;;;;;;;;5075147;28;20516;-79
2021/11/13 02:44:52;;;;;;;15.67;10.20;;;;;;;;;;5077446;28;20613;-80
2021/11/13 02:47:22;;;;;;;9.77;8.50;;;;;;;;;;5089325;28;20188;-80
2021/11/13 02:49:48;;;;;;;12.00;9.07;;;;;;;;;;5073433;28;20587;-80
2021/11/13 02:52:15;;;;;;;13.40;8.63;;;;;;;;;;5062121;28;20226;-80
2021/11/13 02:54:45;;;;;;;14.03;8.97;;;;;;;;;;5056374;28;20219;-78
2021/11/13 02:57:11;;;;;;;13.53;10.03;;;;;;;;;;5059328;28;20187;-79
2021/11/13 02:59:47;;;;;;;11.10;8.90;;;;;;;;;;5070564;28;20370;-79
2021/11/13 03:02:14;;;;;;;11.47;9.10;;;;;;;;;;5059038;28;20630;-79
2021/11/13 03:04:40;;;;;;;14.57;9.63;;;;;;;;;;5070754;28;20200;-79
2021/11/13 03:07:09;;;;;;;14.93;9.27;;;;;;;;;;5074983;28;20171;-79
2021/11/13 03:09:36;;;;;;;11.63;9.33;;;;;;;;;;5086773;28;20184;-79
2021/11/13 03:12:03;;;;;;;10.43;9.10;;;;;;;;;;5070824;28;20176;-79
2021/11/13 03:14:29;;;;;;;12.07;9.03;;;;;;;;;;5078149;28;20188;-79
2021/11/13 03:17:02;;;;;;;11.00;9.33;;;;;;;;;;5059252;28;20556;-79
2021/11/13 03:19:28;;;;;;;12.53;9.27;;;;;;;;;;5069844;28;20249;-79
2021/11/13 03:21:54;;;;;;;12.70;9.10;;;;;;;;;;5070366;28;20184;-79
2021/11/13 03:24:22;;;;;;;12.50;9.33;;;;;;;;;;5058324;28;20176;-80
2021/11/13 03:26:48;;;;;;;11.33;9.70;;;;;;;;;;5070463;28;20180;-79
2021/11/13 03:29:16;;;;;;;11.80;9.60;;;;;;;;;;5093319;28;20259;-79
2021/11/13 03:31:44;;;;;;;13.57;10.53;;;;;;;;;;5072625;28;20176;-79
2021/11/13 03:34:10;;;;;;;11.93;9.77;;;;;;;;;;5075659;28;20204;-79
2021/11/13 03:36:36;;;;;;;15.60;10.00;;;;;;;;;;5078164;28;20290;-79
2021/11/13 03:39:03;;;;;;;13.63;10.53;;;;;;;;;;5072170;28;20184;-79
2021/11/13 03:41:30;;;;;;;11.23;9.67;;;;;;;;;;5079033;28;20556;-79
2021/11/13 03:43:56;;;;;;;11.93;9.70;;;;;;;;;;5075876;28;20175;-78
2021/11/13 03:46:22;;;;;;;12.53;9.87;;;;;;;;;;5079464;28;20183;-79
2021/11/13 03:48:49;;;;;;;12.30;9.87;;;;;;;;;;5069984;28;20576;-79
2021/11/13 03:51:15;;;;;;;13.20;10.00;;;;;;;;;;5059510;28;20500;-79
2021/11/13 03:53:41;;;;;;;13.43;10.80;;;;;;;;;;5058338;28;20204;-79
2021/11/13 03:56:07;;;;;;;15.67;11.60;;;;;;;;;;5088393;28;20646;-78
2021/11/13 03:58:33;;;;;;;17.23;10.70;;;;;;;;;;5079423;28;20529;-79
2021/11/13 04:01:00;;;;;;;14.27;10.13;;;;;;;;;;5058585;28;20177;-79
2021/11/13 04:03:26;;;;;;;13.53;9.10;;;;;;;;;;5056783;28;20608;-79
2021/11/13 04:05:52;;;;;;;16.20;10.93;;;;;;;;;;5061608;28;20207;-79
2021/11/13 04:08:18;;;;;;;13.93;10.47;;;;;;;;;;5066991;28;20194;-79
2021/11/13 04:10:44;;;;;;;16.10;10.93;;;;;;;;;;5063650;28;20468;-79
2021/11/13 04:13:11;;;;;;;17.03;11.17;;;;;;;;;;5071883;28;20249;-79
2021/11/13 04:15:37;;;;;;;14.37;11.40;;;;;;;;;;5054834;28;20180;-79
2021/11/13 04:18:03;;;;;;;13.80;11.40;;;;;;;;;;5062511;28;20176;-79
2021/11/13 04:20:29;;;;;;;14.67;11.03;;;;;;;;;;5067204;28;20180;-79
2021/11/13 04:22:55;;;;;;;14.13;11.17;;;;;;;;;;5057689;28;20234;-79
2021/11/13 04:25:22;;;;;;;14.77;11.27;;;;;;;;;;5084359;28;20184;-79
2021/11/13 04:27:49;;;;;;;15.20;9.93;;;;;;;;;;5056524;28;20195;-79
2021/11/13 04:30:16;;;;;;;12.90;10.27;;;;;;;;;;5053246;28;20180;-79
2021/11/13 04:32:43;;;;;;;17.07;11.67;;;;;;;;;;5074399;28;20230;-79
2021/11/13 04:37:46;;;;;;;14.40;11.37;;;;;;;;;;5077898;28;20172;-79
2021/11/13 04:40:12;;;;;;;15.97;11.53;;;;;;;;;;5064321;28;20180;-79
2021/11/13 04:42:38;;;;;;;14.53;10.33;;;;;;;;;;5064793;28;20177;-79
2021/11/13 04:45:05;;;;;;;17.00;10.63;;;;;;;;;;5073153;28;20171;-79
2021/11/13 04:47:33;;;;;;;14.03;11.00;;;;;;;;;;5066890;28;20721;-79
2021/11/13 04:49:59;;;;;;;14.60;10.53;;;;;;;;;;5070453;28;20219;-79
2021/11/13 04:52:25;;;;;;;13.07;10.97;;;;;;;;;;5064580;28;20263;-79
2021/11/13 04:54:51;;;;;;;17.27;10.83;;;;;;;;;;5073213;28;20673;-79
2021/11/13 04:57:17;;;;;;;12.10;10.80;;;;;;;;;;5076114;28;20187;-80
2021/11/13 04:59:44;;;;;;;15.13;11.27;;;;;;;;;;5054110;28;20306;-80
2021/11/13 05:02:10;;;;;;;14.83;12.27;;;;;;;;;;5066168;28;20201;-79
2021/11/13 05:04:36;;;;;;;15.93;12.03;;;;;;;;;;5074009;28;20176;-79
2021/11/13 05:07:02;;;;;;;16.70;11.60;;;;;;;;;;5057620;28;20188;-80
2021/11/13 05:09:28;;;;;;;13.43;11.40;;;;;;;;;;5080162;28;20748;-81
2021/11/13 05:11:55;;;;;;;17.00;12.00;;;;;;;;;;5068656;28;20215;-80
2021/11/13 05:14:21;;;;;;;17.07;12.27;;;;;;;;;;5078928;28;20647;-80
2021/11/13 05:16:47;;;;;;;16.03;12.23;;;;;;;;;;5065132;28;20176;-80
2021/11/13 05:19:13;;;;;;;16.00;12.13;;;;;;;;;;5070993;28;20203;-81
2021/11/13 05:21:39;;;;;;;17.13;12.87;;;;;;;;;;5077907;28;20233;-80
2021/11/13 05:24:06;;;;;;;16.87;12.70;;;;;;;;;;5060832;28;20294;-79
2021/11/13 05:26:32;;;;;;;23.60;14.03;;;;;;;;;;5087504;28;20266;-80
2021/11/13 05:28:58;;;;;;;19.33;13.70;;;;;;;;;;5095110;28;20172;-80
2021/11/13 05:31:24;;;;;;;16.97;12.57;;;;;;;;;;5061533;28;20180;-80
2021/11/13 05:33:50;;;;;;;17.30;12.90;;;;;;;;;;5059645;28;20197;-80
2021/11/13 05:36:16;;;;;;;20.77;14.53;;;;;;;;;;5067441;28;20670;-80
2021/11/13 05:38:43;;;;;;;18.43;13.97;;;;;;;;;;5077353;28;20172;-80
2021/11/13 05:41:09;;;;;;;19.53;13.90;;;;;;;;;;5073587;28;20235;-81
2021/11/13 05:43:35;;;;;;;19.20;13.60;;;;;;;;;;5075833;28;20189;-80
2021/11/13 05:46:01;;;;;;;21.53;13.47;;;;;;;;;;5067064;28;20267;-80
2021/11/13 05:48:27;;;;;;;19.47;13.37;;;;;;;;;;5074539;28;20540;-80
2021/11/13 05:50:53;;;;;;;18.50;14.33;;;;;;;;;;5075842;28;20256;-80
2021/11/13 05:53:19;;;;;;;19.03;13.70;;;;;;;;;;5065358;28;20210;-80
2021/11/13 05:55:48;;;;;;;17.43;13.00;;;;;;;;;;5074134;28;20646;-80
2021/11/13 05:58:18;;;;;;;21.10;13.70;;;;;;;;;;5067470;28;20183;-80
2021/11/13 06:00:44;;;;;;;17.93;12.83;;;;;;;;;;5075891;28;20179;-79
2021/11/13 06:03:10;;;;;;;17.63;12.80;;;;;;;;;;5076365;28;20196;-79
2021/11/13 06:05:36;;;;;;;17.40;12.87;;;;;;;;;;5080689;28;20179;-79
2021/11/13 06:08:03;;;;;;;18.23;12.67;;;;;;;;;;5073411;28;20180;-80
2021/11/13 06:10:29;;;;;;;16.93;13.20;;;;;;;;;;5070975;28;20183;-80
2021/11/13 06:12:55;;;;;;;14.10;11.30;;;;;;;;;;5075096;28;20281;-80
2021/11/13 06:15:21;;;;;;;16.30;12.03;;;;;;;;;;5075880;28;20914;-80
2021/11/13 06:17:47;;;;;;;18.33;12.63;;;;;;;;;;5075724;28;20215;-79
2021/11/13 06:20:13;;;;;;;18.87;12.63;;;;;;;;;;5076346;28;20182;-79
2021/11/13 06:22:39;;;;;;;15.67;12.63;;;;;;;;;;5091311;28;20176;-80
2021/11/13 06:25:08;;;;;;;14.87;11.30;;;;;;;;;;5090832;28;20178;-79
2021/11/13 06:27:34;;;;;;;12.90;10.70;;;;;;;;;;5070495;28;20558;-80
2021/11/13 06:30:00;;;;;;;18.63;13.13;;;;;;;;;;5074927;28;20509;-79
2021/11/13 06:32:26;;;;;;;21.80;13.60;;;;;;;;;;5072053;28;20275;-79
2021/11/13 06:34:56;;;;;;;17.53;12.67;;;;;;;;;;5061224;28;20197;-79
2021/11/13 06:37:22;;;;;;;17.63;12.67;;;;;;;;;;5094177;28;20194;-79
2021/11/13 06:39:48;;;;;;;15.70;12.60;;;;;;;;;;5074308;28;20258;-79
2021/11/13 06:42:14;;;;;;;14.70;11.13;;;;;;;;;;5082769;28;20184;-79
2021/11/13 06:44:40;;;;;;;16.40;12.37;;;;;;;;;;5053560;28;20184;-79
2021/11/13 06:47:06;;;;;;;16.10;12.10;;;;;;;;;;5074586;28;20542;-79
2021/11/13 06:49:32;;;;;;;18.27;11.53;;;;;;;;;;5061746;28;20274;-79
2021/11/13 06:51:59;;;;;;;14.60;11.73;;;;;;;;;;5083392;28;20180;-79
2021/11/13 06:54:25;;;;;;;16.10;12.07;;;;;;;;;;5091626;28;20199;-80
2021/11/13 06:56:51;;;;;;;20.43;13.43;;;;;;;;;;5071778;28;20592;-79
2021/11/13 06:59:20;;;;;;;17.23;13.13;;;;;;;;;;5084626;28;20172;-79
2021/11/13 07:01:47;;;;;;;15.63;12.73;;;;;;;;;;5083081;28;20211;-79
2021/11/13 07:04:13;;;;;;;17.43;12.57;;;;;;;;;;5067815;28;20196;-79
2021/11/13 07:06:39;;;;;;;14.23;12.00;;;;;;;;;;5070729;28;20185;-79
2021/11/13 07:09:05;;;;;;;15.70;12.07;;;;;;;;;;5058351;28;20303;-80
2021/11/13 07:11:31;;;;;;;16.63;12.60;;;;;;;;;;5061022;28;20336;-79
2021/11/13 07:13:58;;;;;;;16.30;13.03;;;;;;;;;;5071042;28;20208;-79
2021/11/13 07:16:24;;;;;;;17.23;13.50;;;;;;;;;;5060930;28;20239;-79
2021/11/13 07:18:50;;;;;;;15.60;13.10;;;;;;;;;;5065598;28;20191;-80
2021/11/13 07:21:16;;;;;;;19.57;13.37;;;;;;;;;;5085102;28;20168;-80
2021/11/13 07:23:42;;;;;;;19.53;12.97;;;;;;;;;;5072075;28;20180;-79
2021/11/13 07:26:11;;;;;;;16.73;12.57;;;;;;;;;;5061330;28;20184;-79
2021/11/13 07:28:39;;;;;;;18.03;12.57;;;;;;;;;;5074743;28;20202;-79
2021/11/13 07:31:05;;;;;;;17.93;12.60;;;;;;;;;;5061607;28;20274;-79
2021/11/13 07:33:31;;;;;;;15.97;12.67;;;;;;;;;;5066371;28;20188;-80
2021/11/13 07:35:57;;;;;;;14.87;10.73;;;;;;;;;;5083187;28;20218;-79
2021/11/13 07:38:23;;;;;;;16.53;11.70;;;;;;;;;;5058838;28;20701;-80
2021/11/13 07:40:50;;;;;;;17.47;13.07;;;;;;;;;;5060556;28;20178;-79
2021/11/13 07:43:16;;;;;;;15.67;12.77;;;;;;;;;;5074815;28;20180;-80
2021/11/13 07:45:42;;;;;;;16.10;12.50;;;;;;;;;;5065531;28;20180;-79
2021/11/13 07:48:08;;;;;;;16.77;13.53;;;;;;;;;;5061565;28;20719;-80
2021/11/13 07:50:35;;;;;;;14.97;12.40;;;;;;;;;;5072331;28;20235;-80
2021/11/13 07:53:06;;;;;;;18.80;14.33;;;;;;;;;;5075144;28;20196;-79
2021/11/13 07:55:32;;;;;;;19.57;13.67;;;;;;;;;;5058251;28;20186;-79
2021/11/13 07:57:58;;;;;;;18.60;14.40;;;;;;;;;;5065431;28;20173;-79
2021/11/13 08:00:26;;;;;;;15.43;12.80;;;;;;;;;;5065465;28;20195;-79
2021/11/13 08:02:52;;;;;;;18.77;13.63;;;;;;;;;;5073492;28;20302;-80
2021/11/13 08:05:18;;;;;;;18.07;12.93;;;;;;;;;;5067880;28;20184;-80
2021/11/13 08:07:45;;;;;;;19.87;14.57;;;;;;;;;;5060969;28;20195;-80
2021/11/13 08:10:12;;;;;;;18.00;13.83;;;;;;;;;;5065865;28;20181;-79
2021/11/13 08:12:38;;;;;;;22.23;15.00;;;;;;;;;;5063897;28;20180;-79
2021/11/13 08:15:05;;;;;;;18.77;14.97;;;;;;;;;;5062852;28;20207;-79
2021/11/13 08:17:31;;;;;;;18.47;13.43;;;;;;;;;;5082853;28;20172;-80
2021/11/13 08:19:57;;;;;;;18.27;14.90;;;;;;;;;;5064455;28;20265;-79
2021/11/13 08:22:23;;;;;;;19.70;14.17;;;;;;;;;;5079601;28;20176;-79
2021/11/13 08:24:49;;;;;;;20.93;15.50;;;;;;;;;;5073844;28;20183;-80
2021/11/13 08:27:15;;;;;;;17.40;14.83;;;;;;;;;;5075496;28;20184;-79
2021/11/13 08:29:41;;;;;;;19.50;15.03;;;;;;;;;;5087976;28;20655;-80
2021/11/13 08:32:08;;;;;;;22.80;15.77;;;;;;;;;;5087452;28;20654;-79
2021/11/13 08:34:35;;;;;;;18.10;14.03;;;;;;;;;;5065665;28;20562;-80
2021/11/13 08:37:01;;;;;;;19.73;14.97;;;;;;;;;;5077875;28;20180;-80
2021/11/13 08:39:32;;;;;;;17.27;13.83;;;;;;;;;;5062519;28;20184;-79
2021/11/13 08:41:59;;;;;;;17.03;12.37;;;;;;;;;;5066719;28;20180;-79
2021/11/13 08:44:25;;;;;;;17.60;12.63;;;;;;;;;;5062689;28;20186;-79
2021/11/13 08:46:51;;;;;;;14.57;11.83;;;;;;;;;;5071570;28;20180;-80
2021/11/13 08:49:17;;;;;;;18.23;12.37;;;;;;;;;;5066113;28;20549;-79
2021/11/13 08:51:44;;;;;;;17.23;12.63;;;;;;;;;;5053825;28;20183;-79
2021/11/13 08:54:10;;;;;;;17.53;13.20;;;;;;;;;;5058840;28;20204;-79
2021/11/13 08:56:36;;;;;;;16.20;12.23;;;;;;;;;;5055486;28;20191;-79
2021/11/13 08:59:02;;;;;;;17.13;12.73;;;;;;;;;;5058682;28;20647;-80
2021/11/13 09:01:30;;;;;;;16.53;12.23;;;;;;;;;;5077065;28;20180;-80
2021/11/13 09:03:56;;;;;;;16.20;12.87;;;;;;;;;;5049314;28;20224;-79
2021/11/13 09:06:24;;;;;;;16.63;12.13;;;;;;;;;;5050699;28;20210;-80
2021/11/13 09:08:51;;;;;;;16.97;12.00;;;;;;;;;;5049638;28;20176;-81
2021/11/13 09:11:19;;;;;;;15.73;11.80;;;;;;;;;;5052510;28;20192;-80
2021/11/13 09:13:46;;;;;;;16.97;12.07;;;;;;;;;;5057350;28;20199;-80
2021/11/13 09:16:13;;;;;;;17.70;13.77;;;;;;;;;;5057772;28;20176;-81
2021/11/13 09:18:39;;;;;;;14.97;12.50;;;;;;;;;;5076586;28;20168;-81
2021/11/13 09:21:06;;;;;;;16.77;13.37;;;;;;;;;;5076157;28;20620;-81
2021/11/13 09:23:32;;;;;;;17.60;13.07;;;;;;;;;;5076089;28;20187;-81
2021/11/13 09:25:58;;;;;;;16.43;12.17;;;;;;;;;;5059643;28;20216;-82
2021/11/13 09:28:25;;;;;;;20.60;12.03;;;;;;;;;;5057905;28;20184;-82
2021/11/13 09:30:51;;;;;;;18.05;15.23;;;;;;;;;;5052377;28;20421;-81
2021/11/13 09:33:17;;;;;;;17.27;13.80;;;;;;;;;;5077043;28;20303;-81
2021/11/13 09:35:44;;;;;;;17.60;13.83;;;;;;;;;;5059467;28;20197;-81
2021/11/13 09:38:11;;;;;;;16.20;12.57;;;;;;;;;;5048184;28;20173;-80
2021/11/13 09:40:38;;;;;;;21.80;13.00;;;;;;;;;;5054038;28;20182;-81
2021/11/13 09:43:05;;;;;;;15.90;13.50;;;;;;;;;;5060129;28;20244;-81
2021/11/13 09:45:32;;;;;;;17.50;13.27;;;;;;;;;;5081477;28;20236;-80
2021/11/13 09:48:00;;;;;;;19.43;12.73;;;;;;;;;;5061433;28;20176;-80
2021/11/13 09:50:28;;;;;;;21.07;13.53;;;;;;;;;;5063404;28;20239;-81
2021/11/13 09:52:55;;;;;;;17.50;13.77;;;;;;;;;;5062044;28;20234;-84
2021/11/13 09:55:21;;;;;;;18.80;14.03;;;;;;;;;;5064796;28;20161;-83
2021/11/13 09:57:47;;;;;;;25.10;15.07;;;;;;;;;;5059357;28;20223;-81
2021/11/13 10:00:15;;;;;;;22.80;15.70;;;;;;;;;;5063994;28;20207;-81
2021/11/13 10:02:42;;;;;;;21.37;14.87;;;;;;;;;;5059837;28;20200;-81
2021/11/13 10:05:09;;;;;;;21.70;14.80;;;;;;;;;;5062210;28;20675;-80
2021/11/13 10:07:36;;;;;;;19.57;14.10;;;;;;;;;;5062156;28;20659;-81
2021/11/13 10:10:03;;;;;;;18.43;14.13;;;;;;;;;;5060468;28;20185;-80
2021/11/13 10:12:36;;;;;;;18.93;13.83;;;;;;;;;;5057590;28;20189;-80
2021/11/13 10:15:22;;;;;;;14.00;12.50;;;;;;;;;;5044837;28;20287;-81
2021/11/13 10:18:04;;;;;;;16.87;11.53;;;;;;;;;;5048706;28;20504;-81
2021/11/13 10:20:30;;;;;;;14.57;10.87;;;;;;;;;;5059022;28;20184;-81
2021/11/13 10:22:56;;;;;;;12.40;9.07;;;;;;;;;;5075997;28;20172;-80
2021/11/13 10:25:22;;;;;;;10.70;9.53;;;;;;;;;;5061074;28;20180;-81
2021/11/13 10:28:07;;;;;;;12.03;9.00;;;;;;;;;;5080056;28;20215;-80
2021/11/13 10:30:33;;;;;;;9.20;8.27;;;;;;;;;;5058915;28;20176;-81
2021/11/13 10:32:59;;;;;;;9.33;8.30;;;;;;;;;;5054194;28;20207;-81
2021/11/13 10:35:45;;;;;;;8.87;7.97;;;;;;;;;;5056636;28;20189;-81
2021/11/13 10:38:13;;;;;;;9.73;7.47;;;;;;;;;;5053570;28;20268;-81
2021/11/13 10:43:10;;;;;;;9.63;7.40;;;;;;;;;;5054716;28;20216;-57
2021/11/13 10:45:36;;;;;;;9.33;7.43;;;;;;;;;;5076274;22;20224;-78
2021/11/13 10:48:18;;;;;;;8.13;7.23;;;;;;;;;;5052817;28;20187;-79
2021/11/13 10:50:44;;;;;;;7.80;7.00;;;;;;;;;;5042630;28;20213;-81
2021/11/13 10:53:13;;;;;;;7.50;6.80;;;;;;;;;;5047016;28;20204;-78
2021/11/13 10:55:40;;;;;;;7.70;6.90;;;;;;;;;;5044846;28;20201;-78
2021/11/13 10:58:25;;;;;;;8.60;6.87;;;;;;;;;;5043419;28;20169;-77
2021/11/13 11:00:51;;;;;;;9.23;8.23;;;;;;;;;;5056998;28;20424;-78
2021/11/13 11:03:17;;;;;;;10.83;8.07;;;;;;;;;;5070828;28;20177;-78
2021/11/13 11:05:45;;;;;;;8.13;7.03;;;;;;;;;;5052987;28;20546;-78
2021/11/13 11:08:26;;;;;;;8.40;7.53;;;;;;;;;;5069359;28;20184;-78
2021/11/13 11:10:52;;;;;;;10.33;8.30;;;;;;;;;;5052387;28;20208;-79
2021/11/13 11:13:38;;;;;;;9.87;7.93;;;;;;;;;;5052363;28;20714;-78
2021/11/13 11:16:17;;;;;;;8.37;7.47;;;;;;;;;;5049047;28;20180;-78
2021/11/13 11:18:57;;;;;;;10.67;7.83;;;;;;;;;;5067433;28;20614;-78
2021/11/13 11:21:49;;;;;;;7.97;6.97;;;;;;;;;;5061539;28;20192;-78
2021/11/13 11:24:18;;;;;;;8.93;7.63;;;;;;;;;;5052846;28;20456;-78
2021/11/13 11:26:45;;;;;;;8.90;7.93;;;;;;;;;;5055255;28;20571;-78
2021/11/13 11:29:12;;;;;;;10.67;8.57;;;;;;;;;;5049995;28;20184;-78
2021/11/13 11:31:49;;;;;;;9.70;8.43;;;;;;;;;;5044820;28;20185;-81
2021/11/13 11:34:23;;;;;;;16.30;10.27;;;;;;;;;;5054937;28;20211;-80
2021/11/13 11:36:49;;;;;;;14.80;10.67;;;;;;;;;;5066527;28;20618;-83
2021/11/13 11:39:16;;;;;;;25.30;12.63;;;;;;;;;;5054979;28;20168;-87
2021/11/13 11:41:42;;;;;;;13.87;11.77;;;;;;;;;;5054467;28;20646;-83
2021/11/13 11:44:09;;;;;;;14.70;12.20;;;;;;;;;;5045003;28;20218;-80
2021/11/13 11:46:35;;;;;;;15.63;11.93;;;;;;;;;;5050520;28;20221;-84
2021/11/13 11:49:01;;;;;;;16.13;12.17;;;;;;;;;;5036960;28;20183;-82
2021/11/13 11:51:27;;;;;;;16.07;12.33;;;;;;;;;;5041420;28;20286;-80
2021/11/13 11:54:00;;;;;;;16.57;13.67;;;;;;;;;;5044794;28;20211;-80
2021/11/13 11:56:27;;;;;;;15.87;12.47;;;;;;;;;;5061515;28;20176;-80
2021/11/13 11:58:54;;;;;;;16.23;12.93;;;;;;;;;;5047306;28;20188;-80
2021/11/13 12:01:28;;;;;;;21.40;14.10;;;;;;;;;;5043931;28;20193;-80
2021/11/13 12:04:14;;;;;;;19.50;14.07;;;;;;;;;;5041736;28;20273;-79
2021/11/13 12:06:45;;;;;;;15.50;13.13;;;;;;;;;;5051369;28;20213;-79
2021/11/13 12:09:11;;;;;;;19.13;13.87;;;;;;;;;;5050291;28;20605;-79
2021/11/13 12:11:37;;;;;;;16.87;12.73;;;;;;;;;;5044351;28;20188;-79
2021/11/13 12:14:21;;;;;;;18.63;13.87;;;;;;;;;;5045359;28;20664;-79
2021/11/13 12:16:47;;;;;;;15.43;13.07;;;;;;;;;;5055753;28;20173;-79
2021/11/13 12:19:15;;;;;;;24.70;12.83;;;;;;;;;;5070678;28;20204;-79
2021/11/13 12:21:52;;;;;;;14.27;12.03;;;;;;;;;;5048749;28;20185;-79
2021/11/13 12:24:18;;;;;;;18.90;14.30;;;;;;;;;;5053405;28;20246;-79
2021/11/13 12:26:58;;;;;;;19.93;15.23;;;;;;;;;;5068804;28;20180;-79
2021/11/13 12:29:24;;;;;;;18.47;13.93;;;;;;;;;;5046304;28;20226;-79
2021/11/13 12:31:51;;;;;;;18.13;15.43;;;;;;;;;;5051459;28;20176;-79
2021/11/13 12:34:18;;;;;;;19.97;14.23;;;;;;;;;;5053213;28;20208;-79
2021/11/13 12:36:50;;;;;;;17.47;15.30;;;;;;;;;;5063639;28;20246;-79
2021/11/13 12:39:18;;;;;;;21.03;14.53;;;;;;;;;;5054117;28;20173;-79
2021/11/13 12:41:46;;;;;;;17.10;14.20;;;;;;;;;;5055521;28;20177;-80
2021/11/13 12:44:13;;;;;;;21.53;15.30;;;;;;;;;;5062739;28;20197;-80
2021/11/13 12:46:47;;;;;;;19.33;14.83;;;;;;;;;;5036311;28;20583;-81
2021/11/13 12:49:16;;;;;;;18.23;15.00;;;;;;;;;;5026292;28;20670;-80
2021/11/13 12:52:03;;;;;;;21.70;15.40;;;;;;;;;;5021395;28;20277;-80
2021/11/13 12:54:34;;;;;;;24.87;17.73;;;;;;;;;;5030297;28;20552;-80
2021/11/13 12:57:06;;;;;;;20.57;16.33;;;;;;;;;;5046829;28;20276;-79
2021/11/13 12:59:39;;;;;;;23.30;16.97;;;;;;;;;;5026244;28;20208;-79
2021/11/13 13:02:15;;;;;;;26.63;18.30;;;;;;;;;;5048314;28;20189;-80
2021/11/13 13:04:41;;;;;;;20.13;16.27;;;;;;;;;;5030144;28;20250;-80
2021/11/13 13:07:08;;;;;;;21.50;16.37;;;;;;;;;;5032772;28;20182;-80
2021/11/13 13:09:47;;;;;;;19.87;15.13;;;;;;;;;;5025223;28;20177;-80
2021/11/13 13:12:15;;;;;;;26.57;16.07;;;;;;;;;;5039868;28;20258;-80
2021/11/13 13:14:41;;;;;;;20.57;15.87;;;;;;;;;;5027116;28;20225;-80
2021/11/13 13:17:07;;;;;;;19.63;15.60;;;;;;;;;;5027456;28;20178;-80
2021/11/13 13:19:34;;;;;;;17.80;15.70;;;;;;;;;;5047359;28;20174;-80
2021/11/13 13:22:03;;;;;;;18.10;15.87;;;;;;;;;;5044992;28;20194;-80
2021/11/13 13:24:29;;;;;;;18.17;15.57;;;;;;;;;;5051477;28;20841;-80
2021/11/13 13:27:03;;;;;;;19.87;16.37;;;;;;;;;;5030184;28;20177;-80
2021/11/13 13:29:29;;;;;;;18.93;16.33;;;;;;;;;;5028052;28;20476;-80
2021/11/13 13:32:01;;;;;;;18.53;16.40;;;;;;;;;;5007826;28;20697;-80
2021/11/13 13:34:28;;;;;;;17.40;14.80;;;;;;;;;;5036606;28;20197;-80
2021/11/13 13:37:42;;;;;;;16.00;14.30;;;;;;;;;;5032142;28;20173;-80
2021/11/13 13:39:43;;;;;;;17.03;14.53;;;;;;;;;;5035763;28;20177;-79
2021/11/13 13:42:10;;;;;;;16.80;15.03;;;;;;;;;;5032952;28;20231;-80
2021/11/13 13:44:37;;;;;;;16.07;14.20;;;;;;;;;;5034912;28;20209;-80
2021/11/13 13:47:03;;;;;;;17.90;15.47;;;;;;;;;;5058968;28;20233;-80
2021/11/13 13:49:30;;;;;;;19.00;14.50;;;;;;;;;;5069624;28;20204;-80
2021/11/13 13:51:59;;;;;;;16.37;14.70;;;;;;;;;;5074196;28;20599;-80
2021/11/13 13:54:27;;;;;;;17.77;14.87;;;;;;;;;;5055560;28;20192;-79
2021/11/13 13:56:56;;;;;;;21.10;15.27;;;;;;;;;;5050319;28;20192;-78
2021/11/13 13:59:28;;;;;;;18.10;16.20;;;;;;;;;;5052599;28;20185;-79
2021/11/13 14:01:57;;;;;;;18.53;14.77;;;;;;;;;;5060578;28;20631;-79
2021/11/13 14:04:27;;;;;;;16.40;14.70;;;;;;;;;;5050583;28;20589;-79
2021/11/13 14:06:54;;;;;;;20.03;16.93;;;;;;;;;;5049167;28;20180;-80
2021/11/13 14:09:20;;;;;;;18.00;16.07;;;;;;;;;;5058998;28;20184;-79
2021/11/13 14:11:53;;;;;;;18.93;16.63;;;;;;;;;;5066935;28;20427;-79
2021/11/13 14:14:25;;;;;;;19.93;15.70;;;;;;;;;;5047424;28;20262;-79
2021/11/13 14:16:51;;;;;;;17.83;15.93;;;;;;;;;;5046557;28;20187;-79
2021/11/13 14:19:17;;;;;;;17.37;15.53;;;;;;;;;;5051841;28;20196;-80
2021/11/13 14:21:44;;;;;;;21.63;15.93;;;;;;;;;;5065909;28;20639;-79
2021/11/13 14:24:21;;;;;;;18.33;15.33;;;;;;;;;;5055489;28;20241;-79
2021/11/13 14:26:58;;;;;;;17.67;15.67;;;;;;;;;;5066710;28;20195;-82
2021/11/13 14:29:24;;;;;;;17.23;15.10;;;;;;;;;;5066903;28;20184;-81
2021/11/13 14:31:50;;;;;;;17.07;14.53;;;;;;;;;;5050574;28;20712;-79